This is the latest recevied weather packets stored in our database for station/object DB0BGL. If no packets are shown the sender has not sent any weather packets the latest 10 day(s).
| Time | Temp. | Humidity | Pressure | Rain* | Wind** | Luminosity | Snow |
|---|---|---|---|---|---|---|---|
| 1788327630 | 15.56° C | 65% | 0 hPa | 0 mm | - | - | - |
| 1788327035 | 13.89° C | 72% | 0 hPa | 0 mm | - | - | - |
| 1788326429 | 12.22° C | 81% | 0 hPa | 0 mm | - | - | - |
| 1788325828 | 10° C | 91% | 0 hPa | 0 mm | - | - | - |
| 1788325228 | 8.33° C | 98% | 0 hPa | 0 mm | - | - | - |
| 1788283855 | 11.11° C | 84% | 0 hPa | 0 mm | - | - | - |
| 1788283255 | 11.67° C | 84% | 0 hPa | 0 mm | - | - | - |
| 1788282661 | 12.22° C | 80% | 0 hPa | 0 mm | - | - | - |
| 1788282053 | 12.22° C | 77% | 0 hPa | 0 mm | - | - | - |
| 1788281454 | 12.22° C | 77% | 0 hPa | 0 mm | - | - | - |
| 1788280853 | 12.22° C | - | - | 0 mm | 0 m/s | - | - |
| 1788280852 | 12.22° C | 78% | 0 hPa | 0 mm | - | - | - |
| 1788280252 | 12.22° C | 78% | 0 hPa | 0 mm | - | - | - |
| 1788279682 | 12.22° C | 78% | 0 hPa | 0 mm | - | - | - |
| 1788279651 | 12.22° C | 78% | 0 hPa | 0 mm | - | - | - |
| 1788279050 | 12.78° C | 100% | 0 hPa | 0 mm | - | - | - |
| 1788278452 | 13.33° C | 72% | 0 hPa | 0 mm | - | - | - |
| 1788277849 | 14.44° C | 72% | 0 hPa | 0 mm | - | - | - |
| 1788277249 | 15° C | 71% | 0 hPa | 0 mm | - | - | - |
| 1788276648 | 14.44° C | 72% | 0 hPa | 0 mm | - | - | - |
| 1788276047 | 13.89° C | 73% | 0 hPa | 0 mm | - | - | - |
| 1788275447 | 13.89° C | 73% | 0 hPa | 0 mm | - | - | - |
| 1788274846 | 13.33° C | 73% | 0 hPa | 0 mm | - | - | - |
| 1788274246 | 13.89° C | 72% | 0 hPa | 0 mm | - | - | - |
| 1788273645 | 14.44° C | 65% | 0 hPa | 0 mm | - | - | - |
* Rain latest hour (hover to see other rain measurements)
** Current wind speed in m/s (hover to see current wind gust speed)